Date,TemperatureHighF,TemperatureAvgF,TemperatureLowF,DewpointHighF,DewpointAvgF,DewpointLowF,HumidityHigh,HumidityAvg,HumidityLow,PressureMaxIn,PressureMinIn,WindSpeedMaxMPH,WindSpeedAvgMPH,GustSpeedMaxMPH,PrecipitationSumIn
2014-1-1,25.2,19.3,11.0,11.6,7.1,4.1,77,59,44,30.32,30.11,18,3,19,0.00
2014-1-2,19.1,9.4,-1.3,13.5,5.5,-5.2,95,84,69,30.30,29.82,21,6,26,0.00
2014-1-3,11.5,4.6,-1.5,4.4,-2.4,-9.3,95,73,49,30.25,29.69,26,8,26,0.00
2014-1-5,33.6,33.0,32.3,32.1,31.2,30.4,94,93,92,30.13,29.86,4,0,4,0.14
2014-1-6,57.4,41.8,25.9,55.6,38.3,14.1,96,87,60,29.87,29.22,26,6,26,0.18
2014-1-7,26.1,12.0,6.2,14.7,-4.6,-11.7,63,47,36,30.17,29.44,32,11,32,0.00
2014-1-8,19.0,11.9,5.1,3.9,-1.6,-8.9,61,54,45,30.40,30.15,18,6,19,0.00
2014-1-9,28.0,18.3,10.2,9.5,6.0,3.0,83,60,39,30.59,30.36,17,3,17,0.00
2014-1-10,34.8,22.4,8.2,32.2,18.8,4.8,90,86,77,30.54,30.28,8,1,9,0.01
2014-1-12,39.0,37.2,33.7,25.8,25.2,24.4,69,61,57,29.90,29.78,19,6,19,0.03
2014-1-13,52.2,40.5,30.2,40.5,29.2,22.8,83,65,42,30.05,29.83,21,4,21,0.02
2014-1-14,48.1,45.1,41.0,44.7,42.4,38.7,95,90,80,29.83,29.55,18,3,20,0.01
2014-1-15,46.5,38.3,30.9,39.0,34.0,29.1,94,85,64,29.95,29.68,13,2,14,0.00
2014-1-16,35.9,33.3,29.1,34.5,31.9,27.6,95,94,93,29.87,29.78,7,1,7,0.01
2014-1-17,43.7,37.4,33.1,35.1,29.3,20.4,96,76,40,29.92,29.83,15,3,16,0.00
2014-1-19,29.6,28.5,28.0,22.7,21.8,21.0,76,76,74,29.52,29.48,14,5,16,0.03
2014-1-20,38.5,32.1,21.7,28.0,23.2,10.9,77,70,54,29.81,29.43,25,5,28,0.02
2014-1-21,21.7,12.1,9.0,10.9,2.1,-4.4,84,65,47,30.01,29.81,16,5,17,0.00
2014-1-22,16.4,9.4,4.9,4.4,-3.5,-6.8,81,56,40,29.84,29.59,21,7,21,0.00
2014-1-23,19.7,9.5,1.1,-1.4,-5.1,-7.8,67,52,34,30.10,29.83,17,4,19,0.00
2014-1-24,16.7,9.0,3.6,0.4,-5.1,-7.8,76,54,34,30.19,30.08,18,5,19,0.00
2014-1-26,18.9,18.0,17.1,12.6,6.2,1.2,76,60,49,29.82,29.78,11,4,11,0.00
2014-1-27,42.7,27.3,17.9,36.4,16.3,1.6,88,65,36,29.92,29.46,27,6,30,0.05
2014-1-28,17.9,14.2,9.5,2.4,-5.6,-11.5,50,41,31,30.23,29.92,21,6,24,0.00
2014-1-29,23.9,17.4,12.4,5.2,-2.1,-7.0,72,43,26,30.16,29.90,17,4,20,0.00
2014-1-30,29.1,19.2,10.8,10.5,3.2,-4.8,70,50,36,30.37,30.12,14,3,17,0.00
2014-1-31,39.2,29.7,18.5,21.9,15.9,9.2,85,59,37,30.13,29.94,18,4,18,0.11
2014-2-2,41.0,39.2,37.4,35.9,33.9,32.1,82,81,80,29.99,29.89,8,3,8,0.08
2014-2-3,37.4,29.7,19.4,32.2,24.7,17.2,91,82,62,30.24,29.98,10,3,14,0.02
2014-2-4,33.1,24.3,14.0,22.7,17.9,11.4,91,78,56,30.40,30.23,11,1,11,0.03
2014-2-5,27.7,24.9,21.6,24.9,22.1,18.8,96,89,80,30.25,29.59,15,3,17,0.00
2014-2-6,28.4,19.3,11.3,18.9,11.5,6.8,89,73,43,30.22,29.89,14,2,14,0.03
2014-2-7,28.9,19.0,8.3,11.1,8.1,3.8,84,64,45,30.20,30.08,18,4,20,0.00
2014-2-8,27.5,20.5,10.2,9.1,4.1,-0.1,76,50,35,30.23,30.06,12,3,15,0.00
2014-2-9,24.5,24.1,22.7,22.2,21.6,20.2,91,90,88,29.96,29.89,9,1,10,0.01
2014-2-10,25.7,20.0,9.8,20.3,10.8,2.6,91,69,47,30.14,29.84,19,4,20,0.00
2014-2-11,23.5,13.5,2.0,7.2,2.1,-1.7,87,62,40,30.37,30.14,16,3,18,0.00
2014-2-12,26.0,14.6,2.2,8.7,-0.5,-6.0,75,53,27,30.50,30.36,17,2,17,0.00
2014-2-13,23.5,18.3,13.0,21.3,13.6,6.9,91,82,75,30.35,29.98,10,2,10,0.00
2014-2-14,35.8,31.6,25.7,30.8,26.6,21.0,94,82,65,29.44,28.78,31,9,32,0.01
2014-2-15,33.3,27.9,21.5,27.1,23.4,18.3,93,84,63,29.80,29.42,15,3,19,0.00
2014-2-16,30.8,25.0,19.9,26.0,12.4,7.5,93,60,40,29.91,29.41,25,9,33,0.00
2014-2-17,27.1,18.0,6.3,8.3,-2.4,-6.4,69,41,24,30.32,29.91,22,6,25,0.00
2014-2-18,29.2,14.6,3.4,27.2,9.0,-2.4,93,78,65,30.33,29.83,15,2,16,0.00
2014-2-19,32.0,26.4,14.8,29.7,23.5,12.1,94,89,78,30.04,29.66,12,3,13,0.00
2014-2-20,46.4,36.7,27.9,31.5,28.2,22.8,94,74,41,30.16,29.76,17,3,17,0.19
2014-2-21,38.1,35.4,32.1,36.7,33.9,30.3,95,94,93,30.10,29.60,16,4,18,0.14
2014-2-22,51.3,40.5,26.4,33.2,27.3,22.2,96,64,33,29.90,29.77,22,4,26,0.11
2014-2-23,48.3,38.6,26.3,29.5,26.1,22.2,86,63,40,29.92,29.70,9,2,13,0.07
2014-2-24,37.2,34.2,30.2,28.4,19.3,10.8,83,56,36,29.73,29.67,14,3,15,0.01
2014-3-1,33.5,20.4,2.9,20.9,7.1,-3.0,83,58,34,30.40,30.03,10,3,18,0.01
2014-3-2,36.8,32.0,27.1,23.8,20.5,14.3,75,62,57,30.02,29.90,6,3,11,0.10
2014-3-3,26.9,18.5,8.6,14.2,1.7,-6.2,59,48,33,30.25,29.93,11,5,20,0.00
2014-3-4,27.3,16.8,1.8,6.7,-1.2,-5.7,75,47,29,30.33,30.18,7,2,14,0.00
2014-3-5,23.4,21.0,15.8,17.3,13.2,4.7,81,72,44,30.44,30.18,7,3,11,0.00
2014-3-6,29.3,17.2,7.1,7.7,-1.8,-9.5,77,46,20,30.59,30.44,6,2,12,0.00
2014-3-7,35.7,20.6,3.2,22.8,10.5,-0.5,85,66,48,30.44,30.03,11,2,12,0.04
2014-3-8,51.8,36.4,20.3,27.3,23.0,15.2,91,61,36,29.87,29.61,14,3,19,0.07
2014-3-9,38.2,31.3,25.8,15.4,11.4,6.2,59,44,27,29.88,29.80,16,5,22,0.00
2014-3-10,43.2,33.5,26.2,27.9,21.6,10.9,88,63,46,29.82,29.57,14,3,14,0.01
2014-3-11,55.6,42.8,34.1,34.4,30.3,26.8,89,64,35,29.66,29.44,21,4,24,0.00
2014-3-12,45.8,38.0,34.7,36.8,32.9,27.8,94,82,62,29.66,28.98,8,2,11,0.35
2014-3-13,34.7,19.7,14.4,32.8,11.6,-1.0,93,72,45,29.88,28.93,30,10,30,0.08
2014-3-14,36.7,22.3,10.1,18.5,5.4,-1.7,62,49,31,30.11,29.88,20,5,21,0.00
2014-3-15,54.6,42.8,34.8,36.2,30.1,21.3,83,62,40,29.85,29.59,24,7,33,0.01
2014-3-16,36.6,28.5,21.8,21.1,7.6,-2.8,67,42,24,30.14,29.80,25,8,28,0.00
2014-3-17,29.6,20.0,13.3,5.5,-2.2,-6.6,60,38,24,30.15,29.98,14,4,18,0.00
2014-3-18,38.4,24.4,13.2,19.4,9.4,-1.0,79,54,31,30.30,30.10,15,3,17,0.00
2014-3-19,39.3,30.0,18.2,29.4,23.0,15.2,89,76,58,30.34,29.93,20,5,20,0.00
2014-3-20,48.7,40.0,34.7,40.3,32.3,27.0,95,76,48,29.96,29.55,25,6,27,0.47
2014-3-21,40.9,36.9,33.8,26.8,22.4,20.4,70,56,45,29.91,29.68,28,10,29,0.00
2014-3-22,54.6,37.2,23.8,39.5,24.7,18.1,82,62,37,30.00,29.60,29,6,33,0.02
2014-3-23,40.2,33.4,21.7,23.6,15.6,0.2,75,50,27,30.02,29.84,16,5,24,0.00
2014-3-24,29.5,21.2,13.9,5.9,-0.8,-3.3,57,39,25,30.11,29.98,22,6,24,0.00
2014-3-25,36.7,26.0,13.6,15.4,9.1,4.4,75,50,30,30.09,29.86,17,3,21,0.00
2014-3-26,32.5,28.7,22.2,17.4,10.7,-0.8,61,47,30,29.96,29.53,40,10,40,0.00
2014-3-27,43.1,27.7,18.5,14.4,1.9,-1.5,44,34,18,30.25,29.96,24,7,25,0.00
2014-3-28,56.2,43.8,33.6,46.7,34.0,14.3,90,69,44,30.19,29.88,22,6,24,0.03
2014-3-29,49.5,43.5,37.0,46.6,38.7,34.4,94,84,65,30.19,29.93,19,5,19,0.30
2014-3-30,39.3,37.4,34.0,38.0,35.7,31.9,95,93,92,29.93,29.58,22,7,23,0.93
2014-3-31,40.1,35.2,32.3,33.6,31.2,28.1,94,86,68,29.94,29.64,21,6,21,0.52
2014-4-1,52.4,40.5,31.6,32.7,28.5,25.1,77,63,46,30.05,29.94,18,4,19,0.30
2014-4-2,56.9,41.1,28.4,35.4,29.9,25.6,91,67,41,30.07,29.95,17,2,17,0.51
2014-4-3,53.6,38.0,27.9,29.8,26.6,24.1,92,67,33,30.08,29.97,17,3,20,0.57
2014-4-4,44.9,38.0,31.7,34.7,29.7,25.9,91,73,54,30.11,29.85,21,6,22,0.21
2014-4-5,48.7,40.4,35.4,40.5,32.5,23.2,95,76,47,29.86,29.63,30,7,34,0.26
2014-4-6,56.1,41.6,27.7,26.1,22.3,16.9,79,50,23,30.12,29.86,18,4,20,0.00
2014-4-7,59.1,42.9,31.6,38.9,26.3,16.8,90,57,22,30.17,29.86,20,3,21,0.04
2014-4-8,63.9,51.8,41.6,56.2,46.2,32.3,96,82,50,29.86,29.23,24,6,27,0.34
2014-4-9,54.4,45.5,33.8,36.3,27.6,11.4,88,53,25,29.91,29.44,25,6,25,0.00
2014-4-10,60.4,44.9,26.2,33.2,21.8,13.6,72,43,20,30.09,29.90,27,6,28,0.00
2014-4-11,68.0,56.3,47.5,50.0,41.1,33.1,82,58,40,29.95,29.83,18,5,22,0.03
2014-4-12,67.4,54.4,42.5,45.4,37.4,28.8,94,59,25,30.15,29.91,22,4,26,0.07
2014-4-13,63.6,48.9,42.4,49.2,40.1,34.6,90,72,51,30.22,29.96,18,2,18,0.04
2014-4-14,75.3,60.9,40.6,56.4,50.3,37.6,96,70,50,29.98,29.81,35,8,38,0.00
2014-4-15,66.0,60.2,41.4,59.1,56.0,38.7,93,86,74,29.84,29.50,33,10,39,0.56
2014-4-16,41.6,34.7,28.2,38.3,21.8,14.6,96,62,38,30.55,29.66,26,8,30,0.42
2014-4-17,39.3,32.7,26.6,26.5,21.1,15.8,83,62,51,30.75,30.54,21,5,21,0.00
2014-4-18,43.4,35.2,26.9,32.5,28.4,23.2,87,77,60,30.60,30.19,15,4,21,0.00
2014-4-19,59.8,46.9,33.6,37.0,31.5,25.6,90,59,34,30.35,30.10,19,5,22,0.00
2014-4-20,50.8,41.4,29.3,32.7,25.1,17.3,83,55,29,30.45,30.28,15,3,18,0.00
2014-4-21,70.5,51.8,32.3,37.4,28.2,18.6,84,46,14,30.27,29.77,19,4,19,0.00
2014-4-22,74.0,59.3,46.9,50.5,41.6,35.8,90,56,28,29.77,29.40,21,5,21,0.04
2014-4-23,53.2,49.8,44.8,50.5,43.1,32.3,93,79,58,29.56,29.36,30,7,33,0.47
2014-4-24,55.4,47.1,39.7,32.4,26.0,19.3,61,44,32,29.86,29.54,36,12,37,0.00
2014-4-25,63.7,49.7,35.8,35.1,28.4,21.1,71,46,20,29.95,29.76,15,4,16,0.00
2014-4-26,48.5,43.3,40.5,40.0,36.9,32.6,91,79,56,29.82,29.72,12,3,13,0.31
2014-4-27,48.4,43.0,39.1,42.4,38.9,36.2,94,86,71,30.00,29.78,12,2,12,0.16
2014-4-28,56.2,46.8,37.0,40.5,37.3,33.2,87,70,53,30.18,29.93,20,4,20,0.00
2014-4-29,44.8,40.7,38.6,38.3,34.8,32.5,88,79,74,30.48,30.17,21,8,22,0.00
2014-4-30,43.4,40.2,38.4,38.9,36.3,33.9,94,86,75,30.49,30.11,20,7,22,0.42
2014-5-1,65.5,49.5,40.5,58.7,47.3,38.9,96,92,78,30.11,29.60,14,2,15,0.79
2014-5-2,64.5,56.0,44.3,53.7,42.7,36.4,96,64,37,29.75,29.60,21,4,22,0.01
2014-5-3,63.7,55.8,42.7,46.6,41.2,37.9,85,59,41,29.81,29.65,15,3,16,0.00
2014-5-4,57.5,52.8,47.0,44.4,39.7,35.7,76,61,46,29.66,29.47,31,8,32,0.00
2014-5-5,61.9,54.0,47.8,43.9,40.4,37.7,75,61,45,29.80,29.55,20,7,21,0.00
2014-5-6,59.9,51.9,40.0,39.2,33.9,25.7,88,53,29,29.97,29.77,18,4,21,0.00
2014-5-7,67.3,53.0,37.2,39.2,31.8,23.6,75,48,19,30.11,29.97,16,3,18,0.00
2014-5-8,69.3,55.0,39.5,50.2,38.8,33.2,83,58,33,30.13,30.00,19,3,20,0.00
2014-5-9,54.8,51.7,49.3,51.0,48.3,46.1,94,88,78,30.18,30.01,9,1,11,0.01
2014-5-10,79.1,65.6,53.9,63.1,59.4,50.7,94,82,50,30.02,29.68,20,6,20,0.33
2014-5-11,77.6,67.4,59.7,58.8,42.5,31.2,91,46,19,29.96,29.72,22,5,22,0.00
2014-5-12,85.1,69.4,49.5,52.5,43.7,40.0,75,43,22,30.06,29.88,28,4,31,0.00
2014-5-13,54.2,48.5,44.9,43.7,40.0,34.6,82,73,61,30.28,30.06,25,5,25,0.00
2014-5-14,62.4,53.4,43.5,52.3,45.3,36.7,88,75,60,30.28,30.19,18,4,18,0.00
2014-5-15,76.1,65.6,57.8,63.0,58.5,51.5,92,79,61,30.23,30.14,13,5,23,0.00
2014-5-16,71.4,65.3,62.7,62.6,61.1,59.2,94,86,71,30.15,29.92,23,8,24,0.20
2014-5-17,72.3,64.9,55.3,62.9,51.9,36.8,95,67,35,30.01,29.78,23,7,24,0.66
2014-5-18,67.2,56.6,44.5,46.6,41.5,33.5,82,59,32,30.06,29.95,14,3,15,0.00
2014-5-19,63.8,55.4,47.3,48.2,38.5,33.2,92,54,36,30.04,29.93,26,5,29,0.06
2014-5-20,71.0,58.1,44.6,48.3,45.1,39.8,95,66,36,29.95,29.86,20,3,20,0.00
2014-5-21,67.6,57.4,45.2,54.2,49.1,43.3,94,75,54,29.94,29.86,19,4,19,0.00
2014-5-22,60.6,54.4,48.4,54.3,51.1,46.7,95,89,73,29.91,29.82,16,3,18,0.14
2014-5-23,58.1,54.2,49.7,54.4,50.7,47.1,96,88,75,29.94,29.82,14,4,15,0.07
2014-5-24,65.6,54.4,49.3,53.3,49.3,46.9,95,84,59,30.01,29.90,12,2,13,0.12
2014-5-25,68.4,56.6,49.1,55.2,51.5,47.3,96,84,58,30.05,29.94,13,2,13,0.00
2014-5-26,76.7,65.2,53.0,59.4,55.4,50.2,91,73,50,29.95,29.74,21,4,23,0.02
2014-5-27,69.6,57.2,46.4,60.0,52.4,44.8,94,84,69,29.91,29.74,20,5,21,0.38
2014-5-28,47.8,45.8,40.2,46.3,44.0,38.3,95,93,91,30.17,29.86,18,4,20,0.09
2014-5-29,62.7,49.8,35.6,46.9,40.0,34.3,96,72,40,30.20,30.09,16,3,18,0.01
2014-5-30,70.7,56.3,45.1,52.9,47.7,41.3,93,75,42,30.10,29.92,11,2,12,0.04
2014-5-31,61.3,53.6,43.5,49.5,43.9,24.2,94,73,26,30.24,29.99,21,4,22,0.00
2014-6-1,72.5,58.9,41.2,51.3,43.3,36.9,92,60,34,30.29,30.17,14,3,15,0.00
2014-6-2,82.1,68.3,52.3,55.6,49.6,43.2,72,53,33,30.18,29.92,15,3,15,0.00
2014-6-3,76.2,65.8,54.3,59.2,54.9,47.6,88,69,54,29.96,29.83,20,5,21,0.00
2014-6-4,62.2,58.2,54.5,56.6,51.9,42.2,92,81,49,29.85,29.72,13,3,14,0.03
2014-6-5,59.4,57.2,53.4,57.7,55.7,52.0,96,95,91,29.74,29.59,10,1,11,0.45
2014-6-6,72.4,62.0,52.6,56.6,53.8,51.5,96,77,51,29.82,29.64,16,4,19,0.01
2014-6-7,81.3,68.1,53.1,59.4,55.1,50.5,91,66,40,29.88,29.80,14,3,16,0.00
2014-6-8,84.3,71.7,55.1,60.6,56.4,51.1,93,62,36,29.90,29.79,11,2,13,0.00
2014-6-9,78.0,68.8,62.6,62.2,57.7,54.4,79,68,52,29.93,29.84,15,3,16,0.00
2014-6-10,79.0,66.6,58.4,67.0,60.9,53.9,93,82,63,30.06,29.86,21,3,23,0.01
2014-6-11,68.0,60.9,53.7,54.5,51.2,46.3,91,72,50,30.13,30.05,18,5,23,0.00
2014-6-12,64.8,60.5,57.2,58.0,55.0,51.7,86,82,76,30.11,30.01,18,6,19,0.00
2014-6-13,62.1,59.5,57.8,61.0,57.6,55.4,96,94,86,30.02,29.73,18,5,21,0.81
2014-6-14,72.6,61.1,57.0,64.2,58.7,55.9,96,92,72,29.79,29.75,12,2,12,0.01
2014-6-15,75.7,65.4,51.8,58.2,52.7,49.0,91,65,44,30.00,29.85,11,5,22,0.00
2014-6-16,81.0,67.3,54.5,55.5,50.6,43.9,81,57,29,30.09,29.95,9,2,16,0.00
2014-6-17,85.7,72.7,60.7,71.0,62.6,53.7,86,71,52,30.00,29.80,9,4,17,0.01
2014-6-18,82.5,75.2,67.4,67.3,63.7,59.7,92,69,49,29.87,29.65,24,6,27,0.04
2014-6-19,80.0,73.1,61.3,61.6,53.0,37.8,85,53,27,29.92,29.83,16,4,18,0.00
2014-6-20,72.4,62.9,51.5,50.5,44.3,38.8,80,53,31,29.93,29.83,19,4,23,0.00
2014-6-21,72.5,61.1,46.9,49.8,46.2,42.5,87,60,42,29.92,29.82,14,2,15,0.00
2014-6-22,72.8,61.9,47.9,53.0,48.8,44.3,89,64,44,29.98,29.87,15,2,16,0.00
2014-6-23,76.4,65.3,49.5,56.9,51.7,47.2,93,64,43,30.12,29.98,13,4,16,0.00
2014-6-24,81.3,69.5,58.2,62.0,55.9,48.5,81,63,49,30.12,29.94,20,6,22,0.00
2014-6-25,85.8,74.7,64.4,70.5,64.3,54.2,83,70,57,29.96,29.79,19,6,19,0.00
2014-6-26,77.8,68.4,58.4,70.3,64.3,54.5,96,87,75,29.95,29.73,18,4,18,1.14
2014-6-27,75.3,65.0,54.3,56.9,50.5,38.1,95,63,30,30.16,29.95,16,3,16,0.00
2014-6-28,82.0,68.2,51.0,61.3,50.8,38.4,90,59,23,30.22,30.15,14,2,16,0.00
2014-6-29,84.7,71.3,55.5,62.3,56.8,49.9,93,64,34,30.20,30.03,12,3,15,0.00
2014-6-30,87.2,74.7,62.3,66.1,60.9,53.8,76,63,46,30.05,29.85,18,4,19,0.00
2014-7-1,87.0,77.0,67.1,72.0,67.1,59.6,85,72,59,29.87,29.71,20,5,20,0.00
2014-7-2,89.0,79.1,70.9,76.1,70.5,65.2,86,75,64,29.86,29.71,25,5,25,0.00
2014-7-3,89.3,78.3,69.4,75.6,70.6,64.9,93,78,54,29.97,29.82,32,3,35,0.20
2014-7-4,72.2,67.0,62.4,68.9,64.9,60.3,96,93,87,29.96,29.74,12,2,13,1.39
2014-7-5,78.1,67.3,56.3,61.0,52.2,41.0,95,63,36,29.95,29.72,28,7,32,0.39
2014-7-6,81.6,72.3,61.2,60.0,54.3,48.5,70,54,37,29.95,29.80,13,6,25,0.00
2014-7-7,85.6,73.6,67.4,70.8,65.0,59.9,94,75,55,29.82,29.63,17,4,48,0.68
2014-7-8,87.8,77.2,68.1,71.7,68.3,65.1,93,76,55,29.74,29.61,19,5,22,0.02
2014-7-9,85.5,77.6,66.2,69.0,65.4,61.1,86,68,46,29.92,29.57,21,5,27,0.04
2014-7-10,78.7,70.2,63.4,62.4,59.9,55.0,93,72,48,30.09,29.88,12,3,13,0.00
2014-7-11,75.6,68.3,61.7,60.2,56.0,52.0,87,66,47,30.17,30.08,14,3,14,0.00
2014-7-12,84.7,71.5,56.5,65.0,59.3,54.4,94,68,43,30.17,30.04,14,2,15,0.00
2014-7-13,83.3,74.3,65.7,67.9,63.1,58.3,86,69,53,30.06,29.83,22,6,23,0.00
2014-7-14,83.8,74.8,69.5,72.3,69.6,65.3,95,85,57,29.85,29.78,15,4,16,0.32
2014-7-15,84.2,76.5,71.7,74.9,71.5,68.6,94,85,69,29.81,29.67,18,4,20,0.25
2014-7-16,73.9,71.4,66.6,71.3,69.3,64.8,95,93,87,29.79,29.70,9,2,10,1.09
2014-7-17,80.1,69.3,60.2,64.6,59.5,56.1,95,73,45,30.01,29.79,11,2,11,0.00
2014-7-18,78.3,68.3,56.1,59.1,56.5,52.2,94,69,44,30.18,30.01,10,2,10,0.00
2014-7-19,75.0,67.0,58.3,64.1,60.0,56.2,94,79,55,30.22,30.16,12,2,12,0.00
2014-7-20,75.2,66.3,57.4,61.1,57.7,53.5,95,75,50,30.17,30.08,13,2,13,0.00
2014-7-21,78.1,67.4,60.0,61.3,59.0,55.9,94,76,52,30.16,30.08,14,2,15,0.00
2014-7-22,88.0,74.8,60.8,68.9,64.8,58.3,95,73,49,30.09,29.92,12,2,12,0.00
2014-7-23,89.4,78.6,69.7,73.5,69.4,65.1,86,74,56,29.92,29.67,20,5,20,0.00
2014-7-24,74.6,70.2,62.2,68.1,64.3,59.3,91,82,70,29.85,29.68,11,3,13,0.00
2014-7-25,79.6,68.1,55.0,62.0,56.9,51.2,92,69,46,29.92,29.84,13,2,15,0.00
2014-7-26,82.0,70.9,58.8,63.3,59.4,54.8,92,69,40,29.92,29.80,16,4,18,0.00
2014-7-27,75.4,70.0,64.9,70.6,66.3,61.6,94,88,76,29.83,29.59,17,4,20,0.62
2014-7-28,81.8,71.4,65.4,71.2,67.2,61.1,96,87,68,29.62,29.37,9,3,19,0.74
2014-7-29,74.6,67.1,59.7,61.2,57.9,55.4,91,73,54,29.88,29.49,14,3,15,0.00
2014-7-30,76.7,66.1,55.3,59.9,56.2,53.0,94,73,46,29.99,29.88,11,1,11,0.00
2014-7-31,79.2,68.6,55.7,62.1,58.1,52.8,92,71,47,30.10,29.98,16,3,20,0.00
2014-8-1,83.0,70.8,63.4,69.2,64.4,60.4,94,81,56,30.16,30.10,14,3,16,0.24
2014-8-2,69.8,65.8,61.9,66.4,61.6,56.7,95,86,68,30.17,30.06,14,2,15,0.01
2014-8-3,72.2,64.3,58.0,62.7,59.5,56.0,95,85,69,30.09,29.99,11,2,11,0.00
2014-8-4,83.8,71.0,59.8,67.5,63.6,58.2,96,79,51,30.00,29.92,11,2,13,0.02
2014-8-5,85.7,74.9,64.7,68.7,65.3,60.9,96,75,44,29.97,29.82,11,2,11,0.00
2014-8-6,79.7,72.1,64.4,65.5,60.4,50.5,87,68,38,29.83,29.72,15,3,16,0.00
2014-8-7,75.2,66.3,56.4,58.7,55.3,51.9,85,69,50,29.86,29.78,12,3,14,0.00
2014-8-8,80.4,67.7,53.9,59.0,55.1,50.8,91,67,40,29.96,29.87,14,2,15,0.00
2014-8-9,80.3,69.2,55.4,61.6,57.8,52.8,92,69,45,30.02,29.95,14,2,15,0.00
2014-8-10,82.8,70.1,56.8,61.1,57.4,54.0,92,67,39,30.07,30.01,15,2,18,0.00
2014-8-11,85.1,71.4,59.7,64.4,60.1,55.9,94,69,41,30.09,30.02,18,2,19,0.00
2014-8-12,79.7,70.8,59.9,64.3,60.4,54.7,93,71,46,30.07,29.97,19,4,19,0.00
2014-8-13,69.1,65.1,61.0,65.2,62.6,59.6,96,92,81,29.97,29.56,25,8,30,1.57
2014-8-14,72.3,63.6,54.5,59.5,54.7,49.7,96,75,46,29.82,29.60,17,4,20,0.00
2014-8-15,68.3,61.1,53.9,56.1,53.4,51.2,93,77,56,29.87,29.78,15,3,15,0.02
2014-8-16,60.1,59.7,58.9,53.1,52.7,52.1,79,78,77,29.87,29.86,5,0,6,0.00
2014-8-26,87.2,73.7,60.1,67.3,63.2,58.4,95,72,39,30.11,29.97,6,2,12,0.00
2014-8-27,87.4,74.6,64.2,71.3,66.2,59.9,94,76,57,29.99,29.77,9,4,18,0.05
2014-8-28,76.3,69.7,61.6,68.3,56.7,48.8,94,66,42,29.94,29.74,10,4,20,0.00
2014-8-29,71.3,61.8,50.9,57.8,52.8,47.7,90,73,54,30.22,29.94,10,3,16,0.00
2014-8-30,76.0,64.0,50.2,60.0,55.3,48.3,95,75,51,30.25,30.07,9,3,19,0.00
2014-8-31,81.3,72.9,64.0,72.4,67.6,59.3,95,84,73,30.07,29.88,11,4,25,0.76
2014-9-1,85.7,76.1,69.1,71.8,69.5,67.7,96,82,57,29.93,29.84,7,2,12,0.01
2014-9-2,87.9,77.5,69.5,73.7,71.1,68.0,95,82,60,29.87,29.66,16,3,24,0.07
2014-9-3,80.4,72.8,63.9,70.8,61.9,55.6,90,70,44,30.02,29.64,16,4,16,0.00
2014-9-4,82.6,70.5,56.4,63.0,59.1,54.3,94,69,46,30.14,30.02,12,2,15,0.00
2014-9-5,86.0,75.0,63.2,70.9,66.2,59.6,91,75,58,30.09,29.91,15,4,18,0.00
2014-9-6,74.4,73.7,72.7,70.6,70.1,69.7,92,89,86,29.92,29.85,14,4,14,0.00
2014-9-7,74.7,65.9,55.9,62.6,55.7,47.1,95,73,39,30.16,29.86,12,2,17,0.08
2014-9-8,60.4,57.0,53.7,52.1,51.4,50.3,90,82,73,30.32,30.30,4,0,5,0.00
2014-9-9,67.2,59.9,51.5,56.0,52.3,42.0,93,77,40,30.31,30.14,18,3,19,0.00
2014-9-10,68.4,60.5,57.1,58.9,56.8,55.3,95,88,69,30.15,29.98,9,2,12,0.00
2014-9-11,75.1,67.4,58.2,67.4,62.5,56.4,95,84,74,29.99,29.71,18,4,20,0.00
2014-9-12,68.1,60.2,51.7,57.7,50.2,44.9,89,70,52,30.18,29.83,15,3,19,0.00
2014-9-13,63.3,54.6,46.7,54.2,48.2,42.4,91,79,66,30.23,30.08,18,4,21,0.07
2014-9-14,63.2,53.9,45.8,54.7,46.6,42.8,95,78,51,30.17,30.04,9,3,18,0.01
2014-9-15,63.3,51.8,40.8,48.8,43.9,38.9,93,76,50,30.19,30.05,9,2,11,0.00
2014-9-16,61.5,53.3,47.5,56.5,50.2,45.0,94,89,81,30.05,29.90,7,1,9,0.02
2014-9-17,68.6,55.7,45.7,52.2,47.1,43.5,96,76,41,29.97,29.88,11,2,13,0.01
2014-9-18,71.5,57.5,45.3,53.2,47.6,41.5,93,72,48,30.10,29.88,11,2,14,0.00
2014-9-19,55.4,47.3,38.1,41.7,35.8,31.1,88,66,46,30.38,30.10,15,3,22,0.00
2014-9-20,69.2,54.0,34.4,55.9,46.5,32.3,94,77,60,30.36,30.03,18,4,19,0.00
2014-9-21,78.8,67.2,58.8,69.4,63.1,54.8,95,87,69,30.04,29.50,13,2,17,0.12
2014-9-22,68.4,62.4,47.1,65.5,52.0,40.1,96,71,46,30.03,29.47,24,7,25,0.00
2014-9-23,67.8,53.2,39.3,49.7,43.8,37.0,92,72,48,30.38,30.03,15,2,15,0.00
2014-9-24,64.5,54.1,43.1,53.7,47.9,41.5,95,81,57,30.57,30.37,15,3,21,0.00
2014-9-25,60.0,52.2,45.4,52.3,48.4,43.6,95,87,74,30.50,30.20,7,1,8,0.00
2014-9-26,74.3,58.7,48.0,57.6,51.9,46.4,95,80,55,30.20,30.07,11,2,13,0.00
2014-9-27,81.7,63.8,48.3,62.3,54.9,46.6,96,76,44,30.13,30.06,8,1,9,0.01
2014-9-28,83.8,67.6,52.1,64.8,59.1,50.5,96,77,48,30.11,29.91,11,2,14,0.00
2014-9-29,72.8,62.0,54.8,61.7,57.7,53.3,95,87,62,29.98,29.88,16,3,19,0.01
2014-9-30,54.8,54.1,53.5,53.4,52.7,52.1,95,95,94,30.00,29.95,9,2,10,0.07
2014-10-1,55.4,54.9,54.5,54.1,53.5,53.1,96,95,94,30.07,29.97,15,3,17,0.30
2014-10-2,54.9,52.4,45.0,53.4,50.5,43.7,96,93,87,30.13,30.06,12,3,14,0.22
2014-10-3,57.5,50.0,43.0,51.4,47.3,41.9,96,91,78,30.10,29.86,15,2,17,0.24
2014-10-4,62.4,56.1,51.3,61.2,54.8,50.0,96,95,90,29.86,29.47,18,4,19,0.11
2014-10-5,61.3,52.1,41.9,60.0,43.6,35.2,96,75,44,29.90,29.49,17,4,17,0.01
2014-10-6,65.7,51.5,36.9,49.0,42.0,35.1,94,73,43,30.10,29.90,14,3,19,0.00
2014-10-7,72.0,62.3,51.0,60.9,55.4,47.8,95,79,55,30.09,29.91,23,5,25,0.00
2014-10-8,70.7,64.0,55.1,61.4,54.1,42.7,93,72,47,29.91,29.63,21,6,24,0.02
2014-10-9,63.3,53.4,43.3,41.9,38.6,34.2,89,59,38,29.94,29.81,23,4,28,0.00
2014-10-10,60.4,50.3,42.7,41.5,39.0,36.7,86,67,47,30.08,29.93,15,3,16,0.00
2014-10-11,50.9,44.5,40.8,46.0,41.9,38.6,94,91,82,30.08,30.00,5,0,5,0.19
2014-10-12,60.6,46.2,33.1,44.9,38.9,31.8,96,78,47,30.25,30.06,11,1,13,0.00
2014-10-13,60.5,50.0,34.6,53.1,44.6,32.8,95,82,69,30.30,30.20,11,2,12,0.00
2014-10-14,75.8,64.4,56.4,64.3,58.6,52.5,91,82,64,30.20,30.09,18,3,21,0.00
2014-10-15,78.5,68.1,57.2,67.4,63.0,55.8,96,85,64,30.10,29.91,17,3,19,0.00
2014-10-16,70.8,66.9,61.0,68.0,64.9,59.3,96,93,90,29.92,29.58,18,4,18,0.31
2014-10-17,71.5,62.5,57.5,59.2,55.5,51.8,96,80,52,29.64,29.52,21,4,21,0.12
2014-10-18,69.2,60.4,54.9,59.2,54.7,47.5,94,82,66,29.61,29.42,18,4,19,0.07
2014-10-19,55.0,48.5,40.4,47.4,36.6,24.9,81,64,50,29.90,29.52,23,6,23,0.01
2014-10-20,55.7,44.8,33.1,40.1,31.6,24.8,79,61,41,30.00,29.89,17,3,18,0.00
2014-10-21,61.4,50.5,42.2,55.0,47.1,39.1,94,88,74,29.95,29.84,13,2,13,0.09
2014-10-22,52.7,49.1,47.4,51.3,47.3,45.5,96,93,92,29.99,29.75,26,6,28,0.25
2014-10-23,52.3,49.0,46.3,50.2,47.4,44.7,95,94,91,29.76,29.56,22,6,25,1.19
2014-10-24,51.6,48.4,42.7,46.6,44.7,39.8,95,87,78,29.70,29.60,16,4,16,0.44
2014-10-25,63.8,51.5,41.3,46.5,42.5,38.6,93,73,43,29.71,29.44,14,3,16,0.12
2014-10-26,56.9,50.8,42.3,45.9,41.0,36.4,82,69,50,29.65,29.38,23,5,23,0.07
2014-10-27,60.3,49.2,41.5,40.8,39.0,36.4,86,69,46,29.97,29.63,19,3,21,0.04
2014-10-28,62.0,48.4,36.0,51.3,43.4,34.2,94,84,63,30.03,29.88,11,2,13,0.02
2014-10-29,71.9,54.9,46.7,60.7,50.5,43.8,96,86,59,29.89,29.69,16,2,18,0.03
2014-10-30,55.6,45.6,36.4,46.1,39.6,34.6,95,81,55,29.94,29.81,13,1,14,0.01
2014-10-31,50.6,43.7,35.3,39.5,37.0,33.5,95,78,61,30.00,29.91,13,2,15,0.02
2014-11-1,43.5,40.6,37.0,40.3,36.2,32.5,93,84,73,29.91,29.73,18,6,20,0.00
2014-11-2,39.8,37.9,33.0,34.2,27.9,16.2,90,69,40,29.78,29.58,26,10,34,0.01
2014-11-3,51.4,40.5,32.2,31.2,18.6,7.3,73,44,17,30.00,29.76,27,6,30,0.02
2014-11-4,60.9,47.5,31.4,41.9,34.1,27.9,91,62,35,30.07,29.92,12,2,12,0.01
2014-11-5,63.1,52.8,37.6,45.0,39.6,33.3,86,62,39,30.07,29.89,17,3,19,0.01
2014-11-6,48.5,44.1,37.4,45.3,41.0,33.6,95,89,73,30.06,29.43,11,1,13,0.01
2014-11-7,46.2,42.2,36.3,44.8,35.6,24.6,95,78,62,29.73,29.40,24,7,29,0.00
2014-11-8,46.9,38.6,32.4,30.5,25.2,21.7,76,59,40,29.90,29.73,17,4,19,0.01
2014-11-9,52.4,42.4,31.1,36.1,33.2,28.6,91,71,52,29.96,29.80,12,2,12,0.00
2014-11-10,57.9,41.7,29.0,37.0,32.7,27.0,96,74,40,30.14,29.95,12,1,13,0.50
2014-11-11,61.7,48.0,32.2,51.7,43.4,30.3,95,85,65,30.14,29.91,16,2,17,0.03
2014-11-12,61.1,52.4,41.0,54.8,48.8,32.4,96,88,53,29.95,29.78,13,2,16,0.01
2014-11-13,47.9,40.7,30.7,34.3,29.2,26.7,91,65,44,30.03,29.89,9,2,12,0.01
2014-11-14,42.0,34.2,27.8,32.7,25.8,17.6,95,74,40,30.03,29.83,19,3,19,0.00
2014-11-15,34.5,27.8,24.0,22.6,20.1,16.1,86,74,48,30.19,30.03,16,3,17,0.00
2014-11-16,40.6,32.1,19.7,28.6,22.6,15.4,94,69,48,30.32,30.06,8,2,15,0.19
2014-11-17,39.5,36.8,34.2,38.2,34.0,27.4,95,90,65,30.06,29.38,7,2,10,1.44
2014-11-18,37.7,31.6,24.0,36.6,18.4,4.5,96,61,34,29.86,29.39,27,7,28,0.09
2014-11-19,34.7,27.2,21.5,14.8,9.3,5.5,57,47,35,30.07,29.85,21,6,23,0.00
2014-11-20,44.9,34.2,26.4,22.8,18.5,12.9,73,53,38,30.00,29.67,30,5,31,0.00
2014-11-21,32.7,27.7,22.4,16.6,11.1,5.6,67,50,39,30.35,29.85,23,6,27,0.00
2014-11-22,42.9,31.8,21.1,23.4,12.7,6.6,67,47,23,30.36,29.99,18,5,19,0.00
2014-11-23,57.5,46.8,38.8,42.2,33.0,22.0,75,59,48,30.08,29.98,16,4,17,0.00
2014-11-24,65.4,55.8,37.4,61.8,52.1,31.3,95,87,76,30.03,29.50,29,6,31,0.27
2014-11-25,60.5,54.3,39.7,54.5,41.4,30.1,90,64,37,30.06,29.63,17,3,18,0.00
2014-11-26,42.1,36.1,31.0,32.8,30.5,29.2,94,81,62,30.15,29.63,18,3,19,0.29
2014-11-27,33.8,31.3,27.8,30.9,28.5,24.0,94,89,82,29.95,29.63,16,3,20,0.23
2014-11-28,32.4,27.2,21.5,25.6,21.5,16.0,92,80,59,30.16,29.93,17,4,21,0.00
2014-11-29,33.4,24.0,13.3,21.1,16.2,10.5,91,73,49,30.29,30.15,9,1,10,0.00
2014-11-30,54.3,43.7,29.2,41.5,35.0,21.0,90,72,52,30.19,29.96,19,4,19,0.90
2014-12-1,60.0,48.9,36.7,46.5,39.5,26.4,80,70,61,30.39,29.93,16,5,17,0.05
2014-12-2,36.8,32.4,29.7,34.2,23.4,16.8,94,70,57,30.66,30.32,21,4,24,0.02
2014-12-3,47.7,37.6,32.4,46.0,35.2,25.1,96,92,60,30.33,29.80,25,4,30,0.52
2014-12-4,40.4,33.8,24.6,25.5,21.8,16.7,78,62,46,30.49,30.01,22,4,24,0.00
2014-12-5,37.9,28.5,19.6,30.4,22.1,14.0,93,77,65,30.62,30.37,10,2,11,0.07
2014-12-6,37.6,34.9,32.1,35.9,33.5,30.2,95,95,93,30.38,30.09,13,2,13,0.87
2014-12-7,34.8,29.3,17.4,33.0,17.0,-0.6,94,62,39,30.64,30.18,18,6,20,0.25
2014-12-8,23.0,18.6,14.5,20.0,9.8,-0.5,88,69,46,30.72,30.46,13,5,15,0.00
2014-12-9,45.4,34.0,22.9,44.0,32.4,19.9,96,94,89,30.47,29.46,27,6,28,1.87
2014-12-10,39.3,36.6,35.4,38.0,35.2,33.8,95,95,93,29.53,29.37,17,4,17,0.14
2014-12-11,35.5,32.3,30.0,34.2,30.2,26.4,95,92,86,29.73,29.37,15,4,17,0.13
2014-12-12,36.3,31.7,27.6,29.0,26.8,24.9,90,82,72,29.82,29.73,13,4,14,0.01
2014-12-13,39.4,33.3,29.1,28.5,26.3,24.2,89,76,64,29.81,29.71,16,5,19,0.00
2014-12-14,42.6,33.7,27.5,30.2,26.9,24.3,89,76,61,29.85,29.72,13,3,14,0.00
2014-12-15,42.2,31.3,25.0,29.7,26.4,23.0,93,83,60,30.09,29.84,11,1,13,0.01
2014-12-16,38.2,34.4,27.4,36.6,31.8,25.3,95,90,83,30.10,29.86,6,1,7,0.00
2014-12-17,46.4,40.5,37.2,42.5,37.9,32.3,96,90,79,29.87,29.62,16,4,17,0.38
2014-12-18,41.4,37.2,32.9,33.0,30.2,26.7,93,76,64,29.81,29.65,24,6,25,0.05
2014-12-19,34.5,31.1,25.7,26.8,22.8,20.0,79,71,64,30.10,29.80,17,4,17,0.00
2014-12-20,32.2,28.3,23.0,26.1,22.2,18.5,84,78,71,30.26,30.10,11,2,11,0.00
2014-12-21,32.5,30.1,26.7,26.6,24.9,21.7,91,81,74,30.32,30.23,10,3,11,0.00
2014-12-22,38.7,34.7,30.8,36.0,30.6,24.2,95,85,76,30.35,30.22,8,2,8,0.04
2014-12-23,43.1,39.7,34.9,41.8,38.4,33.5,96,95,93,30.23,30.09,19,3,19,0.26
2014-12-24,41.9,39.7,37.3,40.8,38.6,36.0,96,96,95,30.10,29.49,11,2,12,0.54
2014-12-25,58.0,47.5,39.7,56.8,39.1,29.1,96,74,51,29.90,29.39,27,7,29,0.12
2014-12-26,47.6,40.1,31.1,32.7,29.8,26.6,85,67,54,30.09,29.89,19,4,21,0.00
2014-12-27,50.7,40.7,30.2,35.7,31.7,26.4,87,71,55,30.15,29.93,14,3,14,0.00
2014-12-28,49.9,44.3,36.8,41.6,34.6,27.6,86,69,61,29.94,29.68,30,5,30,0.01
2014-12-29,39.2,32.6,24.0,27.6,20.9,11.0,84,63,43,30.15,29.91,14,3,16,0.00
2014-12-30,27.6,21.9,16.6,11.5,6.0,-3.1,73,51,31,30.30,30.15,16,3,16,0.00
2014-12-31,27.6,18.3,11.0,10.9,6.7,4.2,81,61,38,30.26,30.06,16,3,18,0.00
2015-1-1,30.8,23.4,11.1,15.2,8.7,6.4,82,55,38,30.06,29.84,17,4,22,0.00
2015-1-2,36.6,32.2,26.9,19.9,16.4,11.6,56,52,46,30.40,29.87,20,5,23,0.00